Time;durP1;ratioP1;P1;durP2;ratioP2;P2;SDS_P1;SDS_P2;PMS_P1;PMS_P2;Temp;Humidity;BMP_temperature;BMP_pressure;BME280_temperature;BME280_humidity;BME280_pressure;Samples;Min_cycle;Max_cycle;Signal;HPM_P1;HPM_P2
2022/03/02 00:00:17;;;;;;;7.43;3.25;;;;;;;19.56;20.83;100552.81;5091471;28;20391;-74
2022/03/02 00:02:43;;;;;;;8.43;2.83;;;;;;;19.58;20.73;100553.53;5080164;28;20045;-74
2022/03/02 00:05:09;;;;;;;13.13;5.05;;;;;;;19.59;20.90;100547.16;5091322;28;20036;-71
2022/03/02 00:07:35;;;;;;;13.32;3.30;;;;;;;19.61;20.91;100544.34;5087129;28;20036;-73
2022/03/02 00:10:02;;;;;;;8.32;3.30;;;;;;;19.62;21.20;100530.75;5092173;28;20475;-70
2022/03/02 00:12:27;;;;;;;5.35;3.25;;;;;;;19.64;21.29;100531.44;5091990;28;20028;-70
2022/03/02 00:14:53;;;;;;;6.15;2.75;;;;;;;19.65;21.28;100533.13;5093499;28;20024;-67
2022/03/02 00:17:19;;;;;;;9.13;3.05;;;;;;;19.65;21.27;100546.53;5088631;28;20100;-70
2022/03/02 00:19:44;;;;;;;5.47;3.05;;;;;;;19.65;21.11;100537.63;5096419;28;20128;-70
2022/03/02 00:22:11;;;;;;;6.45;2.97;;;;;;;19.62;21.20;100529.91;5091252;28;20036;-67
2022/03/02 00:24:37;;;;;;;6.10;2.60;;;;;;;19.67;21.30;100532.94;5094606;28;20040;-70
2022/03/02 00:27:03;;;;;;;7.63;3.00;;;;;;;19.67;21.29;100525.75;5083738;28;20509;-67
2022/03/02 00:29:28;;;;;;;7.05;2.92;;;;;;;19.71;21.22;100534.34;5095859;28;20032;-68
2022/03/02 00:31:54;;;;;;;7.88;3.20;;;;;;;19.73;21.30;100531.47;5091986;28;20459;-69
2022/03/02 00:34:20;;;;;;;4.68;2.47;;;;;;;19.76;21.25;100531.19;5090853;28;20032;-69
2022/03/02 00:36:45;;;;;;;5.03;2.95;;;;;;;19.77;21.26;100519.44;5091209;28;20055;-69
2022/03/02 00:39:11;;;;;;;5.95;3.08;;;;;;;19.77;21.08;100524.81;5093944;28;20048;-70
2022/03/02 00:41:37;;;;;;;15.65;4.63;;;;;;;19.78;21.05;100523.81;5093198;28;20032;-70
2022/03/02 00:44:03;;;;;;;9.73;4.03;;;;;;;19.80;21.24;100517.28;5094577;28;20375;-71
2022/03/02 00:46:31;;;;;;;8.73;2.63;;;;;;;19.77;21.10;100514.94;5084572;28;20046;-69
2022/03/02 00:49:02;;;;;;;6.50;2.67;;;;;;;19.81;21.32;100513.59;5091393;28;20028;-69
2022/03/02 00:51:28;;;;;;;7.13;2.95;;;;;;;19.81;21.26;100518.97;5087307;28;20031;-72
2022/03/02 00:53:54;;;;;;;5.55;2.97;;;;;;;19.82;21.13;100512.59;5094695;28;20538;-70
2022/03/02 00:56:21;;;;;;;5.18;3.00;;;;;;;19.85;21.11;100518.66;5095146;28;20123;-69
2022/03/02 00:58:47;;;;;;;6.30;3.85;;;;;;;19.85;21.54;100519.50;5093771;28;20073;-68
2022/03/02 01:01:13;;;;;;;6.75;2.70;;;;;;;19.82;21.79;100520.66;5095344;28;20047;-69
2022/03/02 01:03:38;;;;;;;7.45;3.75;;;;;;;19.82;22.05;100522.50;5093822;28;20028;-70
2022/03/02 01:06:05;;;;;;;6.75;2.65;;;;;;;19.79;21.59;100501.34;5094522;28;20487;-75
2022/03/02 01:08:32;;;;;;;8.65;3.78;;;;;;;19.80;21.51;100501.16;5070787;28;20394;-71
2022/03/02 01:10:58;;;;;;;6.30;2.65;;;;;;;19.85;21.27;100491.78;5093457;28;20101;-71
2022/03/02 01:13:24;;;;;;;10.90;3.45;;;;;;;19.87;21.03;100498.72;5076404;28;20023;-71
2022/03/02 01:15:50;;;;;;;7.03;2.90;;;;;;;19.92;21.00;100506.31;5094558;28;20137;-70
2022/03/02 01:18:16;;;;;;;7.63;3.30;;;;;;;19.92;21.21;100492.91;5094255;28;20032;-75
2022/03/02 01:20:41;;;;;;;6.25;2.75;;;;;;;19.93;21.08;100499.91;5094257;28;20031;-71
2022/03/02 01:23:07;;;;;;;9.48;3.22;;;;;;;19.96;21.31;100499.63;5093090;28;20031;-71
2022/03/02 01:25:33;;;;;;;4.65;3.45;;;;;;;19.97;21.04;100495.94;5094561;28;20159;-72
2022/03/02 01:27:58;;;;;;;8.15;3.17;;;;;;;19.97;21.27;100494.09;5094208;28;20038;-69
2022/03/02 01:30:24;;;;;;;8.63;3.22;;;;;;;19.98;20.92;100494.94;5095340;28;20123;-68
2022/03/02 01:32:49;;;;;;;7.95;2.92;;;;;;;19.94;20.97;100483.66;5089252;28;20029;-71
2022/03/02 01:35:15;;;;;;;6.25;2.78;;;;;;;19.99;21.02;100493.94;5087912;28;20040;-69
2022/03/02 01:37:41;;;;;;;6.22;3.15;;;;;;;20.00;21.20;100492.94;5093170;28;20115;-70
2022/03/02 01:40:09;;;;;;;5.82;3.22;;;;;;;20.02;21.23;100482.00;5094289;28;20028;-73
2022/03/02 01:42:39;;;;;;;5.30;2.70;;;;;;;20.00;21.16;100478.66;5084094;28;20438;-68
2022/03/02 01:45:07;;;;;;;9.13;3.15;;;;;;;19.96;21.17;100484.34;5082072;28;20097;-66
2022/03/02 01:47:33;;;;;;;9.20;3.25;;;;;;;19.46;20.83;100476.94;5091513;28;20554;-67
2022/03/02 01:49:59;;;;;;;8.18;4.10;;;;;;;18.66;21.11;100470.47;5094536;28;20103;-66
2022/03/02 01:52:24;;;;;;;7.22;3.97;;;;;;;17.94;21.42;100475.59;5094212;28;20115;-65
2022/03/02 01:54:50;;;;;;;12.23;4.05;;;;;;;17.30;22.31;100460.06;5094138;28;20499;-67
2022/03/02 01:57:15;;;;;;;10.00;3.53;;;;;;;16.89;22.62;100462.00;5091928;28;20487;-70
2022/03/02 01:59:41;;;;;;;11.00;3.53;;;;;;;16.47;23.17;100463.03;5094023;28;20376;-70
2022/03/02 02:02:07;;;;;;;13.25;3.67;;;;;;;16.11;23.45;100460.00;5093282;28;20066;-62
2022/03/02 02:04:33;;;;;;;9.93;3.60;;;;;;;15.76;23.51;100466.53;5093505;28;20040;-64
2022/03/02 02:06:59;;;;;;;14.27;3.78;;;;;;;15.48;23.68;100468.88;5092911;28;20038;-66
2022/03/02 02:09:24;;;;;;;12.85;4.13;;;;;;;15.22;23.79;100463.94;5087747;28;20031;-69
2022/03/02 02:11:50;;;;;;;12.10;3.35;;;;;;;15.00;23.95;100464.88;5082179;28;20038;-68
2022/03/02 02:14:16;;;;;;;10.98;3.67;;;;;;;14.83;24.02;100461.75;5057154;28;20039;-67
2022/03/02 02:16:41;;;;;;;6.90;3.40;;;;;;;14.76;24.26;100452.59;5073011;28;20135;-65
2022/03/02 02:19:07;;;;;;;7.22;3.53;;;;;;;15.05;23.84;100438.69;5077140;28;20458;-68
2022/03/02 02:21:33;;;;;;;9.57;2.88;;;;;;;15.45;23.57;100443.31;5079301;28;20032;-70
2022/03/02 02:23:58;;;;;;;11.23;3.45;;;;;;;15.79;23.43;100440.44;5072709;28;20028;-70
2022/03/02 02:26:25;;;;;;;5.13;3.25;;;;;;;16.12;23.58;100441.16;5073313;28;20063;-73
2022/03/02 02:28:51;;;;;;;7.05;3.58;;;;;;;16.36;22.86;100434.63;5074346;28;20111;-69
2022/03/02 02:31:18;;;;;;;6.72;2.97;;;;;;;16.57;23.04;100431.88;5084573;28;20450;-72
2022/03/02 02:33:44;;;;;;;5.78;3.83;;;;;;;16.77;22.42;100438.09;5083526;28;20077;-73
2022/03/02 02:36:10;;;;;;;8.75;3.10;;;;;;;16.90;23.02;100436.97;5090219;28;20020;-70
2022/03/02 02:38:36;;;;;;;6.30;3.38;;;;;;;17.02;22.48;100433.19;5079218;28;20115;-70
2022/03/02 02:41:02;;;;;;;5.85;3.13;;;;;;;17.09;22.44;100428.13;5072614;28;20546;-69
2022/03/02 02:43:28;;;;;;;7.65;3.72;;;;;;;17.20;22.15;100427.13;5073386;28;20036;-72
2022/03/02 02:45:54;;;;;;;7.60;3.30;;;;;;;17.27;22.11;100417.56;5072868;28;20506;-71
2022/03/02 02:48:20;;;;;;;8.68;3.22;;;;;;;17.34;22.09;100425.88;5072386;28;20067;-71
2022/03/02 02:50:46;;;;;;;7.20;3.40;;;;;;;17.41;22.18;100418.94;5072632;28;20042;-68
2022/03/02 02:53:13;;;;;;;8.15;3.03;;;;;;;17.45;22.09;100417.69;5074964;28;20168;-69
2022/03/02 02:55:40;;;;;;;5.35;2.95;;;;;;;17.48;22.11;100413.84;5074635;28;20032;-72
2022/03/02 02:58:06;;;;;;;5.57;2.92;;;;;;;17.52;21.90;100410.75;5075686;28;20028;-69
2022/03/02 03:00:36;;;;;;;8.25;3.55;;;;;;;17.56;22.15;100413.13;5054165;28;20028;-73
2022/03/02 03:03:02;;;;;;;4.75;3.03;;;;;;;17.57;21.99;100404.97;5073983;28;20028;-71
2022/03/02 03:05:30;;;;;;;8.18;3.17;;;;;;;17.61;21.91;100401.00;5072234;28;20024;-70
2022/03/02 03:07:56;;;;;;;6.25;3.28;;;;;;;17.62;22.10;100400.00;5077143;28;20047;-73
2022/03/02 03:10:23;;;;;;;4.55;2.90;;;;;;;17.64;21.93;100395.38;5072465;28;20036;-70
2022/03/02 03:12:49;;;;;;;9.98;3.30;;;;;;;17.67;21.74;100395.06;5071823;28;20027;-71
2022/03/02 03:15:17;;;;;;;11.65;3.67;;;;;;;17.69;21.68;100390.44;5072298;28;20028;-74
2022/03/02 03:17:43;;;;;;;7.18;3.35;;;;;;;17.72;21.66;100399.16;5083346;28;20045;-73
2022/03/02 03:20:11;;;;;;;7.72;3.55;;;;;;;17.71;21.87;100389.44;5072037;28;20474;-75
2022/03/02 03:22:38;;;;;;;8.65;3.63;;;;;;;17.73;22.01;100390.97;5079272;28;20028;-73
2022/03/02 03:25:05;;;;;;;4.70;3.03;;;;;;;17.76;21.68;100388.00;5054895;28;20111;-73
2022/03/02 03:27:30;;;;;;;7.43;3.05;;;;;;;17.77;21.67;100387.03;5071585;28;20459;-75
2022/03/02 03:29:56;;;;;;;7.43;3.50;;;;;;;17.78;21.64;100386.03;5071997;28;20020;-74
2022/03/02 03:32:22;;;;;;;7.35;3.33;;;;;;;17.80;21.86;100385.88;5076656;28;20078;-72
2022/03/02 03:34:48;;;;;;;4.60;2.63;;;;;;;17.78;21.93;100377.13;5071821;28;20499;-74
2022/03/02 03:37:14;;;;;;;13.77;3.83;;;;;;;17.81;21.90;100385.72;5071453;28;20399;-71
2022/03/02 03:39:42;;;;;;;5.28;2.85;;;;;;;17.85;21.83;100391.63;5071657;28;20032;-71
2022/03/02 03:42:07;;;;;;;5.97;3.17;;;;;;;17.83;21.82;100381.06;5074261;28;20036;-73
2022/03/02 03:44:33;;;;;;;5.05;3.33;;;;;;;17.86;21.89;100379.94;5083736;28;20036;-72
2022/03/02 03:46:59;;;;;;;7.85;3.42;;;;;;;17.85;21.75;100370.22;5098355;28;20115;-73
2022/03/02 03:49:24;;;;;;;6.72;3.20;;;;;;;17.85;21.87;100370.22;5099383;28;20032;-72
2022/03/02 03:51:50;;;;;;;9.73;3.25;;;;;;;17.87;21.96;100368.22;5098671;28;20023;-72
2022/03/02 03:54:15;;;;;;;9.90;3.00;;;;;;;17.85;22.22;100371.06;5099668;28;20051;-72
2022/03/02 03:56:41;;;;;;;10.27;3.63;;;;;;;17.87;21.75;100370.06;5098184;28;20478;-73
2022/03/02 03:59:08;;;;;;;8.55;4.45;;;;;;;17.86;21.94;100369.22;5098932;28;20152;-71
2022/03/02 04:01:34;;;;;;;7.45;3.38;;;;;;;17.88;22.02;100369.91;5098926;28;20023;-70
2022/03/02 04:03:59;;;;;;;13.63;4.40;;;;;;;17.87;22.21;100372.75;5099321;28;20477;-75
2022/03/02 04:06:25;;;;;;;10.27;2.97;;;;;;;17.87;22.23;100376.25;5098513;28;20119;-73
2022/03/02 04:08:51;;;;;;;10.75;3.78;;;;;;;17.89;21.99;100366.22;5099102;28;20115;-71
2022/03/02 04:11:16;;;;;;;8.93;3.50;;;;;;;17.91;21.97;100369.63;5098464;28;20035;-74
2022/03/02 04:13:42;;;;;;;10.10;3.65;;;;;;;17.92;22.03;100373.16;5099171;28;20024;-74
2022/03/02 04:16:07;;;;;;;10.82;4.70;;;;;;;17.89;21.84;100370.75;5098525;28;20040;-71
2022/03/02 04:18:33;;;;;;;12.65;4.55;;;;;;;17.91;21.87;100363.44;5098811;28;20056;-73
2022/03/02 04:20:59;;;;;;;13.10;3.58;;;;;;;17.90;21.80;100365.25;5099019;28;20089;-72
2022/03/02 04:23:26;;;;;;;10.95;4.75;;;;;;;17.92;21.81;100365.94;5097010;28;20490;-72
2022/03/02 04:25:51;;;;;;;6.25;3.53;;;;;;;17.93;21.95;100367.63;5098541;28;20514;-72
2022/03/02 04:28:18;;;;;;;6.95;3.53;;;;;;;17.94;21.75;100360.47;5098864;28;20032;-74
2022/03/02 04:30:44;;;;;;;10.10;3.60;;;;;;;17.94;22.06;100361.28;5098884;28;20105;-75
2022/03/02 04:33:10;;;;;;;10.85;3.85;;;;;;;17.96;22.00;100362.00;5090583;28;20036;-75
2022/03/02 04:35:35;;;;;;;9.68;3.85;;;;;;;17.98;21.91;100357.38;5078289;28;20040;-73
2022/03/02 04:38:03;;;;;;;8.13;4.55;;;;;;;17.97;21.67;100363.72;5078252;28;20028;-74
2022/03/02 04:40:29;;;;;;;14.23;4.80;;;;;;;17.94;21.56;100361.28;5078072;28;20111;-72
2022/03/02 04:42:54;;;;;;;9.07;4.45;;;;;;;17.94;21.41;100357.78;5089241;28;20032;-74
2022/03/02 04:45:25;;;;;;;12.60;5.03;;;;;;;17.96;21.40;100362.00;5078409;28;20047;-76
2022/03/02 04:47:51;;;;;;;9.77;5.25;;;;;;;17.93;21.68;100356.91;5078396;28;20457;-73
2022/03/02 04:50:19;;;;;;;9.98;5.32;;;;;;;17.93;21.79;100356.91;5078333;28;20035;-70
2022/03/02 04:52:45;;;;;;;7.50;4.32;;;;;;;17.91;21.68;100353.53;5091742;28;20039;-71
2022/03/02 04:55:11;;;;;;;8.45;3.95;;;;;;;17.92;21.70;100349.06;5098172;28;20111;-70
2022/03/02 04:57:46;;;;;;;10.98;4.20;;;;;;;17.93;22.01;100354.25;5086484;28;20550;-74
2022/03/02 05:00:14;;;;;;;10.25;4.03;;;;;;;17.94;22.09;100358.59;5095017;28;20057;-72
2022/03/02 05:02:41;;;;;;;9.50;4.32;;;;;;;17.95;22.04;100362.13;5094854;28;20517;-73
2022/03/02 05:05:08;;;;;;;8.57;4.10;;;;;;;17.94;21.88;100355.09;5095285;28;20024;-74
2022/03/02 05:07:34;;;;;;;11.52;3.78;;;;;;;17.95;22.07;100351.41;5094938;28;20074;-74
2022/03/02 05:10:00;;;;;;;12.02;4.07;;;;;;;17.96;22.09;100356.63;5095662;28;20028;-70
2022/03/02 05:12:26;;;;;;;10.63;5.05;;;;;;;17.98;21.88;100356.50;5094622;28;20517;-73
2022/03/02 05:14:52;;;;;;;12.57;4.32;;;;;;;17.99;22.08;100353.69;5095285;28;20115;-72
2022/03/02 05:17:17;;;;;;;14.02;4.25;;;;;;;17.98;21.99;100343.97;5094552;28;20052;-71
2022/03/02 05:19:43;;;;;;;16.65;4.95;;;;;;;18.03;22.13;100348.00;5094653;28;20036;-73
2022/03/02 05:22:09;;;;;;;13.07;4.25;;;;;;;18.02;21.93;100344.50;5094200;28;20112;-74
2022/03/02 05:24:35;;;;;;;9.15;4.38;;;;;;;18.08;22.16;100337.72;5094878;28;20028;-74
2022/03/02 05:27:01;;;;;;;14.02;4.07;;;;;;;18.09;21.94;100337.53;5094461;28;20399;-73
2022/03/02 05:29:26;;;;;;;13.73;4.40;;;;;;;18.12;21.88;100334.56;5094157;28;20035;-74
2022/03/02 05:31:52;;;;;;;11.10;3.65;;;;;;;18.16;21.96;100337.78;5094154;28;20035;-73
2022/03/02 05:34:17;;;;;;;9.70;4.10;;;;;;;18.19;21.89;100329.44;5094573;28;20054;-72
2022/03/02 05:36:43;;;;;;;6.13;4.10;;;;;;;18.20;21.95;100323.09;5094667;28;20084;-72
2022/03/02 05:39:09;;;;;;;11.82;4.07;;;;;;;18.29;21.80;100330.25;5094790;28;20032;-71
2022/03/02 05:41:34;;;;;;;14.88;4.53;;;;;;;18.29;21.98;100316.84;5093552;28;20028;-74
2022/03/02 05:44:01;;;;;;;10.00;4.57;;;;;;;18.34;22.00;100326.25;5094272;28;20077;-72
2022/03/02 05:46:27;;;;;;;7.97;4.63;;;;;;;18.38;22.08;100327.63;5093564;28;20078;-75
2022/03/02 05:48:54;;;;;;;13.73;4.63;;;;;;;18.42;22.07;100326.34;5094637;28;20032;-72
2022/03/02 05:51:20;;;;;;;10.52;4.28;;;;;;;18.45;21.99;100329.56;5093873;28;20051;-75
2022/03/02 05:53:46;;;;;;;7.75;4.60;;;;;;;18.49;22.30;100326.56;5094175;28;20494;-73
2022/03/02 05:56:12;;;;;;;10.30;4.28;;;;;;;18.52;22.38;100327.09;5093921;28;20036;-74
2022/03/02 05:58:37;;;;;;;7.32;3.83;;;;;;;18.55;22.33;100324.13;5094466;28;20036;-75
2022/03/02 06:01:03;;;;;;;8.82;4.05;;;;;;;18.63;22.43;100322.50;5093939;28;20035;-73
2022/03/02 06:03:29;;;;;;;12.10;3.88;;;;;;;18.68;22.46;100322.88;5093868;28;20047;-75
2022/03/02 06:05:55;;;;;;;7.32;3.67;;;;;;;18.72;22.47;100313.56;5093730;28;20455;-75
2022/03/02 06:08:21;;;;;;;7.88;3.67;;;;;;;18.75;22.55;100307.84;5093323;28;20039;-72
2022/03/02 06:10:48;;;;;;;12.65;4.53;;;;;;;18.75;22.54;100302.50;5093657;28;20031;-75
2022/03/02 06:13:14;;;;;;;7.90;3.03;;;;;;;18.80;22.72;100305.56;5093713;28;20500;-71
2022/03/02 06:15:42;;;;;;;10.38;4.00;;;;;;;18.82;22.52;100311.59;5094044;28;20118;-75
2022/03/02 06:18:07;;;;;;;9.30;3.42;;;;;;;18.87;22.60;100308.44;5093218;28;20122;-74
2022/03/02 06:20:33;;;;;;;6.32;3.33;;;;;;;18.90;22.65;100300.94;5093689;28;20131;-75
2022/03/02 06:22:59;;;;;;;6.07;3.45;;;;;;;18.91;22.69;100297.25;5093447;28;20040;-73
2022/03/02 06:25:26;;;;;;;10.15;4.15;;;;;;;18.94;22.79;100301.50;5093787;28;20043;-72
2022/03/02 06:27:51;;;;;;;9.27;3.72;;;;;;;18.97;22.69;100303.03;5093410;28;20088;-73
2022/03/02 06:30:17;;;;;;;7.10;3.28;;;;;;;18.98;22.68;100294.00;5093712;28;20044;-76
2022/03/02 06:32:43;;;;;;;10.35;2.80;;;;;;;18.99;22.65;100293.00;5089015;28;20032;-75
2022/03/02 06:35:09;;;;;;;6.88;3.30;;;;;;;19.01;22.73;100291.00;5073381;28;20040;-75
2022/03/02 06:37:35;;;;;;;9.95;3.30;;;;;;;19.02;22.61;100288.16;5086598;28;20040;-77
2022/03/02 06:40:04;;;;;;;8.00;3.28;;;;;;;19.05;22.56;100289.66;5093467;28;20518;-75
2022/03/02 06:42:47;;;;;;;5.90;3.22;;;;;;;19.07;22.54;100284.97;5092211;28;20031;-72
2022/03/02 06:45:24;;;;;;;7.05;2.85;;;;;;;19.11;22.58;100297.09;5093469;28;20468;-74
2022/03/02 06:47:55;;;;;;;9.52;3.25;;;;;;;19.15;22.40;100286.88;5075160;28;20040;-73
2022/03/02 06:50:25;;;;;;;8.02;3.00;;;;;;;19.17;22.42;100285.75;5092380;28;20035;-72
2022/03/02 06:52:54;;;;;;;4.28;2.55;;;;;;;19.22;22.33;100279.91;5074597;28;20042;-72
2022/03/02 06:55:21;;;;;;;5.75;3.20;;;;;;;19.24;22.38;100279.72;5093269;28;20107;-73
2022/03/02 06:57:52;;;;;;;9.95;2.85;;;;;;;19.27;22.40;100276.72;5092273;28;20036;-74
2022/03/02 07:00:19;;;;;;;7.47;3.20;;;;;;;19.27;22.35;100269.50;5093327;28;20039;-74
2022/03/02 07:02:52;;;;;;;9.27;3.65;;;;;;;19.33;22.21;100276.94;5092440;28;20043;-74
2022/03/02 07:05:20;;;;;;;6.53;2.80;;;;;;;19.33;22.25;100271.56;5092610;28;20471;-73
2022/03/02 07:07:46;;;;;;;8.27;3.28;;;;;;;19.41;22.08;100275.28;5092500;28;20040;-75
2022/03/02 07:10:12;;;;;;;9.07;2.28;;;;;;;19.45;22.26;100273.94;5092613;28;20514;-72
2022/03/02 07:12:39;;;;;;;6.68;3.10;;;;;;;19.48;22.06;100279.00;5092326;28;20039;-72
2022/03/02 07:15:06;;;;;;;8.85;3.17;;;;;;;19.51;22.17;100263.41;5093432;28;20438;-73
2022/03/02 07:17:32;;;;;;;7.05;3.03;;;;;;;19.52;22.00;100261.59;5092610;28;20105;-74
2022/03/02 07:20:07;;;;;;;7.15;2.97;;;;;;;19.54;22.02;100262.28;5092295;28;20040;-73
2022/03/02 07:22:35;;;;;;;8.98;2.83;;;;;;;19.55;22.25;100265.78;5092268;28;20062;-73
2022/03/02 07:25:07;;;;;;;6.00;3.33;;;;;;;19.55;22.17;100263.94;5092905;28;20059;-70
2022/03/02 07:27:38;;;;;;;9.63;2.78;;;;;;;19.57;22.29;100261.91;5074352;28;20455;-71
2022/03/02 07:30:06;;;;;;;4.63;3.08;;;;;;;19.59;22.03;100261.78;5092195;28;20765;-71
2022/03/02 07:32:35;;;;;;;8.13;2.55;;;;;;;19.60;22.21;100252.72;5090062;28;20035;-72
2022/03/02 07:35:02;;;;;;;6.90;3.00;;;;;;;19.62;22.33;100256.91;5072492;28;20094;-72
2022/03/02 07:37:29;;;;;;;7.55;2.95;;;;;;;19.62;22.40;100250.72;5072478;28;20094;-75
2022/03/02 07:39:55;;;;;;;6.68;2.72;;;;;;;19.64;22.23;100243.31;5072530;28;20116;-76
2022/03/02 07:42:21;;;;;;;8.98;2.65;;;;;;;19.68;22.11;100247.38;5090376;28;20483;-76
2022/03/02 07:44:48;;;;;;;12.00;3.42;;;;;;;19.73;22.22;100245.03;5092865;28;20082;-75
2022/03/02 07:47:14;;;;;;;7.70;2.97;;;;;;;19.76;22.05;100251.91;5092201;28;20039;-74
2022/03/02 07:49:40;;;;;;;6.35;2.88;;;;;;;19.79;22.19;100243.53;5092906;28;20036;-74
2022/03/02 07:52:06;;;;;;;9.65;3.20;;;;;;;19.81;22.01;100246.91;5090659;28;20032;-74
2022/03/02 07:54:37;;;;;;;10.27;3.45;;;;;;;19.81;22.00;100237.00;5092105;28;20471;-73
2022/03/02 07:57:03;;;;;;;;;;;;;;;19.76;22.10;100235.81;5090879;28;20034;-76
2022/03/02 07:59:40;;;;;;;6.35;2.78;;;;;;;19.81;21.88;100238.84;5091619;28;20051;-74
2022/03/02 08:02:08;;;;;;;7.18;2.50;;;;;;;19.83;21.96;100236.84;5092349;28;20494;-74
2022/03/02 08:04:36;;;;;;;8.05;3.00;;;;;;;19.83;22.00;100232.31;5092087;28;20039;-75
2022/03/02 08:07:03;;;;;;;6.15;2.80;;;;;;;19.86;21.88;100227.63;5091145;28;20089;-72
2022/03/02 08:09:31;;;;;;;5.45;3.08;;;;;;;19.89;22.07;100230.00;5092057;28;20472;-76
2022/03/02 08:11:58;;;;;;;17.13;3.00;;;;;;;19.89;22.01;100230.00;5091757;28;20040;-74
2022/03/02 08:14:25;;;;;;;8.60;2.88;;;;;;;19.89;22.17;100219.28;5091482;28;20032;-74
2022/03/02 08:16:56;;;;;;;6.68;2.90;;;;;;;19.95;22.17;100223.97;5091511;28;20052;-73
2022/03/02 08:19:22;;;;;;;5.82;3.00;;;;;;;19.95;22.12;100215.91;5092106;28;20047;-75
2022/03/02 08:22:12;;;;;;;8.45;4.10;;;;;;;19.95;22.05;100205.16;5091555;28;20039;-72
2022/03/02 08:24:42;;;;;;;9.57;2.55;;;;;;;19.97;21.82;100204.00;5092243;28;20032;-76
2022/03/02 08:27:11;;;;;;;13.57;3.85;;;;;;;19.97;21.95;100200.47;5091509;28;20046;-74
2022/03/02 08:29:38;;;;;;;12.07;4.68;;;;;;;19.99;21.75;100200.31;5092243;28;20050;-75
2022/03/02 08:32:05;;;;;;;11.43;4.85;;;;;;;19.99;21.57;100187.72;5092484;28;20036;-77
2022/03/02 08:34:32;;;;;;;8.65;3.97;;;;;;;19.99;21.82;100187.72;5095924;28;20110;-74
2022/03/02 08:37:00;;;;;;;12.23;4.40;;;;;;;19.99;21.85;100184.19;5095590;28;20474;-78
2022/03/02 08:39:26;;;;;;;13.85;4.78;;;;;;;19.97;21.79;100185.22;5095659;28;20032;-77
2022/03/02 08:41:53;;;;;;;7.07;3.85;;;;;;;19.95;22.05;100179.16;5095757;28;20028;-78
2022/03/02 08:44:20;;;;;;;9.60;3.80;;;;;;;19.95;21.80;100181.00;5095928;28;20031;-73
2022/03/02 08:46:46;;;;;;;11.05;3.35;;;;;;;19.95;21.80;100173.78;5094615;28;20046;-70
2022/03/02 08:49:17;;;;;;;8.48;3.45;;;;;;;19.95;21.90;100171.09;5095856;28;20399;-73
2022/03/02 08:51:43;;;;;;;9.80;3.10;;;;;;;19.94;21.70;100164.06;5095352;28;20047;-75
2022/03/02 08:54:13;;;;;;;15.48;5.45;;;;;;;19.95;21.77;100165.72;5095453;28;20032;-72
2022/03/02 08:56:41;;;;;;;11.80;3.50;;;;;;;19.94;21.76;100156.00;5094599;28;20040;-74
2022/03/02 08:59:08;;;;;;;6.25;3.38;;;;;;;19.94;21.66;100163.19;5095205;28;20035;-72
2022/03/02 09:01:40;;;;;;;7.78;3.20;;;;;;;19.96;21.72;100158.50;5094044;28;20368;-72
2022/03/02 09:04:06;;;;;;;9.73;3.70;;;;;;;19.96;21.89;100145.94;5095148;28;20620;-76
2022/03/02 09:06:34;;;;;;;6.50;3.92;;;;;;;19.95;21.84;100144.25;5094392;28;20036;-71
2022/03/02 09:08:59;;;;;;;7.22;3.20;;;;;;;19.97;21.72;100138.69;5095003;28;20479;-72
2022/03/02 09:11:25;;;;;;;5.55;2.85;;;;;;;20.00;21.78;100141.06;5095008;28;20044;-72
2022/03/02 09:13:50;;;;;;;8.07;3.38;;;;;;;20.02;21.81;100144.41;5095409;28;20107;-71
2022/03/02 09:16:17;;;;;;;6.60;2.90;;;;;;;20.06;21.90;100132.34;5094082;28;20054;-73
2022/03/02 09:18:43;;;;;;;13.27;3.35;;;;;;;20.12;22.10;100134.31;5094903;28;20036;-73
2022/03/02 09:21:09;;;;;;;6.35;3.03;;;;;;;20.13;21.94;100125.25;5095086;28;20089;-72
2022/03/02 09:23:42;;;;;;;5.20;3.10;;;;;;;20.16;21.94;100126.75;5095261;28;20035;-73
2022/03/02 09:26:14;;;;;;;6.22;3.33;;;;;;;20.23;22.05;100129.59;5094739;28;20036;-72
2022/03/02 09:28:45;;;;;;;10.23;3.10;;;;;;;20.27;22.03;100126.44;5094842;28;20032;-72
2022/03/02 09:31:14;;;;;;;6.45;3.20;;;;;;;20.27;21.86;100121.06;5095007;28;20395;-69
2022/03/02 09:33:40;;;;;;;5.43;2.83;;;;;;;20.33;21.81;100116.00;5087738;28;20086;-71
2022/03/02 09:36:13;;;;;;;7.70;3.67;;;;;;;20.35;21.97;100108.59;5081938;28;20036;-70
2022/03/02 09:38:40;;;;;;;5.68;2.45;;;;;;;20.39;21.99;100112.63;5079522;28;20042;-70
2022/03/02 09:41:12;;;;;;;5.65;2.70;;;;;;;20.40;21.93;100104.38;5081596;28;20048;-72
2022/03/02 09:43:43;;;;;;;7.20;2.92;;;;;;;20.42;21.76;100097.00;5078861;28;20399;-71
2022/03/02 09:46:12;;;;;;;5.93;2.92;;;;;;;20.45;22.08;100103.88;5079504;28;20041;-74
2022/03/02 09:48:49;;;;;;;9.63;3.00;;;;;;;20.42;22.15;100099.69;5088299;28;20036;-72
2022/03/02 09:51:22;;;;;;;6.78;3.78;;;;;;;20.50;22.20;100103.38;5089433;28;20412;-72
2022/03/02 09:53:53;;;;;;;6.72;3.45;;;;;;;20.51;22.02;100105.06;5070995;28;20025;-71
2022/03/02 09:56:20;;;;;;;;;;;;;;;20.45;22.34;100093.13;5062306;28;20039;-71
2022/03/02 09:58:50;;;;;;;3.15;2.33;;;;;;;20.49;22.32;100091.78;5089187;28;19916;-75
2022/03/02 10:01:20;;;;;;;8.63;3.17;;;;;;;20.52;22.21;100096.81;5070089;28;20032;-73
2022/03/02 10:03:48;;;;;;;6.40;2.88;;;;;;;20.56;21.96;100094.63;5085658;28;20028;-74
2022/03/02 10:06:16;;;;;;;6.38;2.92;;;;;;;20.56;22.12;100087.41;5081439;28;20044;-74
2022/03/02 10:08:47;;;;;;;5.65;2.85;;;;;;;20.57;21.81;100086.38;5087460;28;20048;-70
2022/03/02 10:11:18;;;;;;;10.45;3.60;;;;;;;20.52;22.51;100080.69;5083093;28;20033;-73
2022/03/02 10:13:44;;;;;;;7.40;2.90;;;;;;;20.33;22.62;100078.38;5081602;28;20085;-70
2022/03/02 10:16:20;;;;;;;8.25;3.08;;;;;;;20.10;22.87;100082.59;5074494;28;20512;-71
2022/03/02 10:18:55;;;;;;;9.60;3.30;;;;;;;19.92;22.92;100074.75;5080976;28;20483;-71
2022/03/02 10:21:30;;;;;;;14.23;3.22;;;;;;;19.88;22.97;100069.88;5091986;28;20040;-68
2022/03/02 10:24:01;;;;;;;8.30;3.47;;;;;;;19.79;23.09;100067.16;5087316;28;20059;-72
2022/03/02 10:26:29;;;;;;;11.50;3.47;;;;;;;19.71;23.00;100069.84;5087164;28;20048;-71
2022/03/02 10:29:11;;;;;;;15.30;3.90;;;;;;;19.64;23.23;100060.78;5090086;28;20059;-72
2022/03/02 10:32:00;;;;;;;6.70;3.33;;;;;;;19.61;23.06;100053.91;5087231;28;20119;-69
2022/03/02 10:34:30;;;;;;;12.02;3.70;;;;;;;19.61;23.00;100053.09;5089557;28;20380;-70
2022/03/02 10:37:04;;;;;;;6.82;3.58;;;;;;;19.65;22.79;100055.25;5092126;28;20035;-73
2022/03/02 10:40:11;;;;;;;6.47;3.20;;;;;;;19.63;23.17;100053.75;5091069;28;20506;-74
2022/03/02 10:43:00;;;;;;;9.23;3.60;;;;;;;19.62;22.80;100044.03;5073137;28;20032;-72
2022/03/02 10:45:49;;;;;;;11.45;3.80;;;;;;;19.62;22.93;100042.16;5073223;28;20104;-73
2022/03/02 10:48:38;;;;;;;6.82;3.80;;;;;;;19.69;22.78;100044.19;5088088;28;20130;-70
2022/03/02 10:51:06;;;;;;;9.38;3.78;;;;;;;19.72;22.60;100044.69;5093382;28;20035;-71
2022/03/02 10:53:36;;;;;;;8.27;3.90;;;;;;;19.75;22.73;100039.00;5093184;28;20046;-73
2022/03/02 10:56:04;;;;;;;9.73;3.78;;;;;;;19.76;22.78;100024.56;5092176;28;20040;-71
2022/03/02 10:58:30;;;;;;;9.35;3.38;;;;;;;19.77;22.46;100023.56;5073142;28;20093;-73
2022/03/02 11:00:58;;;;;;;5.20;3.22;;;;;;;19.83;22.46;100028.22;5072564;28;20514;-71
2022/03/02 11:03:27;;;;;;;9.93;3.50;;;;;;;19.85;22.30;100020.03;5076898;28;20036;-71
2022/03/02 11:06:00;;;;;;;6.50;3.17;;;;;;;19.85;22.40;100019.16;5093058;28;20036;-71
2022/03/02 11:08:26;;;;;;;6.53;3.30;;;;;;;19.83;22.31;100024.72;5093231;28;20491;-69
2022/03/02 11:10:52;;;;;;;8.25;3.08;;;;;;;19.85;22.20;100013.78;5092853;28;20031;-74
2022/03/02 11:13:23;;;;;;;6.47;3.30;;;;;;;19.84;22.29;100007.59;5092362;28;20432;-73
2022/03/02 11:15:56;;;;;;;5.78;2.70;;;;;;;19.82;22.42;100002.38;5093043;28;20043;-72
2022/03/02 11:18:38;;;;;;;4.18;2.72;;;;;;;19.85;22.19;99998.53;5093175;28;20100;-73
2022/03/02 11:21:17;;;;;;;6.68;3.25;;;;;;;19.85;22.22;100001.22;5092529;28;20103;-70
2022/03/02 11:23:50;;;;;;;12.57;3.45;;;;;;;19.85;22.25;100001.22;5090787;28;20059;-70
2022/03/02 11:26:28;;;;;;;6.18;3.38;;;;;;;19.82;22.06;99988.94;5092133;28;20043;-73